createdAt,value
2019-02-04T00:02:12.794Z,1.20
2019-02-04T00:04:43.195Z,1.20
2019-02-04T00:11:04.177Z,1.30
2019-02-04T00:13:34.080Z,1.30
2019-02-04T00:16:04.889Z,1.20
2019-02-04T00:22:26.366Z,1.20
2019-02-04T00:35:06.013Z,1.10
2019-02-04T00:44:36.959Z,1.20
2019-02-04T00:47:06.915Z,1.10
2019-02-04T01:06:25.074Z,0.90
2019-02-04T01:39:33.786Z,0.70
2019-02-04T01:42:04.284Z,0.50
2019-02-04T01:44:36.354Z,0.50
2019-02-04T01:47:14.431Z,0.40
2019-02-04T01:49:38.007Z,0.40
2019-02-04T01:55:59.244Z,0.30
2019-02-04T01:58:30.275Z,0.40
2019-02-04T02:01:00.878Z,0.50
2019-02-04T02:03:32.059Z,0.70
2019-02-04T02:20:02.035Z,0.70
2019-02-04T02:22:32.591Z,0.60
2019-02-04T02:32:54.139Z,1.00
2019-02-04T02:35:24.096Z,1.00
2019-02-04T02:37:54.046Z,0.90
2019-02-04T02:40:28.814Z,0.70
2019-02-04T02:42:59.186Z,0.60
2019-02-04T02:45:29.753Z,0.50
2019-02-04T02:48:00.064Z,0.40
2019-02-04T02:50:30.863Z,0.40
2019-02-04T02:53:00.870Z,0.60
2019-02-04T02:59:21.646Z,0.90
2019-02-04T03:12:14.116Z,0.40
2019-02-04T03:14:45.080Z,0.40
2019-02-04T03:17:16.130Z,0.40
2019-02-04T03:19:46.420Z,0.30
2019-02-04T03:22:16.618Z,0.10
2019-02-04T04:20:16.563Z,-1.70
2019-02-04T04:22:47.376Z,-2.00
2019-02-04T04:31:56.712Z,-2.20
2019-02-04T04:34:26.590Z,-2.40
2019-02-04T04:43:18.512Z,-2.30
2019-02-04T04:55:57.208Z,-2.90
2019-02-04T05:33:54.406Z,-3.30
2019-02-04T05:36:24.326Z,-3.30
2019-02-04T05:38:54.484Z,-3.20
2019-02-04T05:41:24.702Z,-3.00
2019-02-04T05:43:54.863Z,-3.10
2019-02-04T05:46:25.022Z,-3.20
2019-02-04T05:48:55.159Z,-2.80
2019-02-04T05:51:25.883Z,-2.50
2019-02-04T05:53:55.853Z,-2.50
2019-02-04T05:56:25.794Z,-2.50
2019-02-04T05:58:56.213Z,-2.20
2019-02-04T06:01:26.704Z,-2.40
2019-02-04T06:03:56.880Z,-2.70
2019-02-04T06:06:26.803Z,-2.80
2019-02-04T06:08:56.696Z,-2.90
2019-02-04T06:11:38.096Z,-3.00
2019-02-04T06:14:08.162Z,-3.10
2019-02-04T06:16:38.065Z,-3.00
2019-02-04T06:19:08.059Z,-3.10
2019-02-04T06:21:38.012Z,-3.10
2019-02-04T06:24:08.134Z,-3.20
2019-02-04T06:26:38.150Z,-3.30
2019-02-04T06:29:08.519Z,-3.50
2019-02-04T06:31:38.434Z,-3.60
2019-02-04T06:34:08.654Z,-3.70
2019-02-04T06:36:39.981Z,-3.80
2019-02-04T06:42:54.901Z,-3.70
2019-02-04T06:45:25.173Z,-3.60
2019-02-04T06:47:55.115Z,-3.60
2019-02-04T06:50:26.047Z,-3.70
2019-02-04T06:56:28.752Z,-3.80
2019-02-04T07:07:07.691Z,-3.70
2019-02-04T07:09:37.578Z,-3.50
2019-02-04T07:12:07.555Z,-3.40
2019-02-04T07:14:37.468Z,-3.40
2019-02-04T07:17:07.716Z,-3.60
2019-02-04T07:19:37.943Z,-3.50
2019-02-04T07:25:40.387Z,-3.20
2019-02-04T07:28:10.464Z,-3.20
2019-02-04T07:30:40.503Z,-3.10
2019-02-04T07:33:10.674Z,-3.00
2019-02-04T07:35:40.884Z,-3.00
2019-02-04T07:41:43.731Z,-3.00
2019-02-04T07:44:13.632Z,-2.70
2019-02-04T07:46:43.803Z,-2.70
2019-02-04T08:00:44.028Z,-2.50
2019-02-04T08:03:15.142Z,-2.20
2019-02-04T08:05:45.191Z,-2.00
2019-02-04T08:08:15.170Z,-2.10
2019-02-04T08:10:45.619Z,-2.00
2019-02-04T08:13:15.552Z,-1.80
2019-02-04T08:27:16.382Z,-1.10
2019-02-04T08:29:46.282Z,-0.90
2019-02-04T08:32:16.430Z,-0.80
2019-02-04T08:34:46.327Z,-0.70
2019-02-04T08:37:16.561Z,-0.70
2019-02-04T08:39:46.683Z,-0.60
2019-02-04T08:42:16.612Z,-0.50
2019-02-04T08:44:47.076Z,-0.40
2019-02-04T08:47:22.951Z,-0.50
2019-02-04T08:49:58.038Z,-0.30
2019-02-04T08:52:22.163Z,-0.30
2019-02-04T08:54:52.325Z,-0.10
2019-02-04T08:57:22.535Z,0.00
2019-02-04T08:59:52.467Z,0.10
2019-02-04T09:02:22.471Z,0.10
2019-02-04T09:04:52.957Z,0.20
2019-02-04T09:07:23.355Z,0.30
2019-02-04T09:09:53.582Z,0.40
2019-02-04T09:12:23.583Z,0.50
2019-02-04T09:14:53.715Z,0.40
2019-02-04T09:17:23.731Z,0.50
2019-02-04T09:19:54.516Z,0.50
2019-02-04T09:22:24.418Z,0.60
2019-02-04T09:24:57.220Z,0.70
2019-02-04T09:27:27.110Z,0.80
2019-02-04T09:29:57.189Z,0.90
2019-02-04T09:32:27.471Z,0.70
2019-02-04T09:34:57.417Z,0.80
2019-02-04T09:37:27.574Z,0.90
2019-02-04T09:39:57.831Z,1.00
2019-02-04T09:42:27.833Z,1.20
2019-02-04T09:44:58.719Z,1.40
2019-02-04T09:47:29.542Z,1.50
2019-02-04T10:54:31.177Z,3.20
2019-02-04T10:57:01.241Z,3.40
2019-02-04T10:59:31.290Z,3.50
2019-02-04T11:02:01.192Z,3.40
2019-02-04T11:04:31.718Z,3.40
2019-02-04T11:07:01.929Z,3.40
2019-02-04T11:09:31.881Z,3.50
2019-02-04T11:12:01.737Z,3.40
2019-02-04T11:14:32.017Z,3.70
2019-02-04T11:17:02.183Z,3.90
2019-02-04T11:19:32.399Z,4.10
2019-02-04T11:22:02.624Z,4.30
2019-02-04T11:24:32.967Z,4.60
2019-02-04T11:27:03.099Z,4.90
2019-02-04T11:29:33.264Z,5.00
2019-02-04T11:32:03.406Z,4.90
2019-02-04T11:34:33.936Z,4.80
2019-02-04T11:37:03.840Z,4.70
2019-02-04T11:39:33.837Z,4.60
2019-02-04T11:42:04.152Z,4.60
2019-02-04T11:44:34.092Z,4.70
2019-02-04T11:47:04.483Z,4.60
2019-02-04T11:49:34.470Z,4.40
2019-02-04T11:52:04.819Z,4.10
2019-02-04T11:54:34.688Z,4.30
2019-02-04T11:57:04.884Z,4.10
2019-02-04T12:03:08.701Z,3.60
2019-02-04T12:05:38.980Z,3.50
2019-02-04T12:08:09.324Z,3.40
2019-02-04T12:22:02.823Z,3.40
2019-02-04T12:47:25.234Z,4.10
2019-02-04T12:49:55.476Z,4.00
2019-02-04T12:58:55.774Z,4.10
2019-02-04T13:01:20.066Z,4.10
2019-02-04T13:03:50.770Z,4.10
2019-02-04T13:06:20.646Z,4.20
2019-02-04T13:08:50.871Z,4.20
2019-02-04T13:11:20.840Z,4.30
2019-02-04T13:13:51.553Z,4.30
2019-02-04T13:16:21.578Z,4.50
2019-02-04T13:18:51.717Z,4.70
2019-02-04T13:21:21.584Z,4.80
2019-02-04T13:23:51.705Z,4.70
2019-02-04T13:26:21.843Z,4.60
2019-02-04T13:28:51.732Z,4.60
2019-02-04T13:31:22.155Z,4.60
2019-02-04T13:33:52.030Z,4.60
2019-02-04T13:36:22.146Z,4.60
2019-02-04T13:38:52.037Z,4.60
2019-02-04T13:41:22.325Z,4.70
2019-02-04T13:43:52.270Z,4.70
2019-02-04T13:46:22.394Z,4.60
2019-02-04T13:48:52.542Z,4.80
2019-02-04T13:51:22.623Z,4.70
2019-02-04T13:53:52.576Z,4.60
2019-02-04T13:56:22.467Z,4.50
2019-02-04T13:58:52.462Z,4.50
2019-02-04T14:01:22.491Z,4.50
2019-02-04T14:03:52.884Z,4.40
2019-02-04T14:06:23.348Z,4.20
2019-02-04T14:08:53.678Z,4.00
2019-02-04T14:11:23.976Z,4.10
2019-02-04T14:13:54.256Z,4.20
2019-02-04T14:16:24.362Z,4.20
2019-02-04T14:18:54.389Z,4.10
2019-02-04T14:21:24.542Z,4.10
2019-02-04T14:23:54.519Z,4.10
2019-02-04T14:26:24.423Z,4.20
2019-02-04T14:28:54.880Z,4.00
2019-02-04T14:35:10.067Z,3.90
2019-02-04T14:37:40.246Z,3.90
2019-02-04T14:40:18.581Z,3.80
2019-02-04T14:42:42.960Z,3.80
2019-02-04T14:45:27.295Z,3.80
2019-02-04T14:48:19.173Z,3.70
2019-02-04T14:51:44.875Z,3.80
2019-02-04T14:55:06.053Z,3.60
2019-02-04T14:57:54.335Z,3.60
2019-02-04T15:07:59.748Z,3.30
2019-02-04T15:11:13.307Z,3.30
2019-02-04T15:14:29.963Z,3.20
2019-02-04T15:17:15.861Z,3.20
2019-02-04T15:27:47.192Z,2.90
2019-02-04T15:31:12.331Z,2.70
2019-02-04T15:34:03.200Z,2.60
2019-02-04T15:37:15.525Z,2.60
2019-02-04T15:40:29.258Z,2.50
2019-02-04T15:43:34.262Z,2.50
2019-02-04T15:46:16.847Z,2.30
2019-02-04T15:49:50.873Z,2.20
2019-02-04T15:52:16.835Z,2.20
2019-02-04T15:54:47.148Z,2.20
2019-02-04T15:57:17.279Z,2.20
2019-02-04T15:59:47.250Z,2.10
2019-02-04T16:02:17.880Z,2.10
2019-02-04T16:04:47.753Z,2.00
2019-02-04T16:07:17.790Z,1.90
2019-02-04T16:09:48.044Z,1.90
2019-02-04T16:12:18.614Z,1.90
2019-02-04T16:18:39.840Z,1.80
2019-02-04T16:21:10.141Z,1.50
2019-02-04T16:23:40.242Z,1.50
2019-02-04T16:26:10.630Z,1.40
2019-02-04T16:28:42.865Z,1.40
2019-02-04T16:31:15.942Z,1.30
2019-02-04T16:33:45.918Z,1.10
2019-02-04T16:36:18.642Z,1.10
2019-02-04T16:38:48.609Z,1.00
2019-02-04T16:41:18.677Z,1.00
2019-02-04T16:43:48.606Z,1.00
2019-02-04T16:46:18.843Z,0.90
2019-02-04T16:48:48.821Z,0.80
2019-02-04T16:51:19.590Z,0.80
2019-02-04T16:53:49.981Z,0.70
2019-02-04T17:00:08.139Z,0.70
2019-02-04T17:02:38.280Z,0.70
2019-02-04T17:05:11.597Z,0.50
2019-02-04T17:07:42.276Z,0.50
2019-02-04T17:10:17.222Z,0.70
2019-02-04T17:12:47.498Z,0.60
2019-02-04T17:15:17.528Z,0.60
2019-02-04T17:17:48.073Z,0.60
2019-02-04T17:20:22.601Z,0.60
2019-02-04T17:22:52.643Z,0.40
2019-02-04T17:25:22.936Z,0.30
2019-02-04T17:27:53.445Z,0.30
2019-02-04T17:30:24.879Z,0.00
2019-02-04T17:32:55.489Z,0.00
2019-02-04T17:35:25.643Z,-0.30
2019-02-04T17:37:55.785Z,-0.20
2019-02-04T17:40:26.476Z,-0.20
2019-02-04T17:42:58.630Z,-0.20
2019-02-04T17:45:28.734Z,-0.50
2019-02-04T17:47:59.411Z,-0.60
2019-02-04T17:54:20.343Z,-0.40
2019-02-04T17:56:50.588Z,-0.60
2019-02-04T17:59:23.088Z,-0.70
2019-02-04T18:01:52.442Z,-0.60
2019-02-04T18:08:08.329Z,-0.90
2019-02-04T18:10:38.215Z,-1.00
2019-02-04T18:13:09.095Z,-0.90
2019-02-04T18:15:39.135Z,-1.00
2019-02-04T18:18:09.328Z,-1.00
2019-02-04T18:20:39.325Z,-1.10
2019-02-04T18:23:11.317Z,-0.90
2019-02-04T18:25:41.746Z,-0.90
2019-02-04T18:28:12.527Z,-0.80
2019-02-04T18:30:42.893Z,-1.20
2019-02-04T18:33:13.106Z,-1.20
2019-02-04T18:35:43.917Z,-1.20
2019-02-04T18:38:13.830Z,-1.10
2019-02-04T18:40:44.064Z,-1.00
2019-02-04T18:47:05.251Z,-1.00
2019-02-04T18:49:35.175Z,-0.90
2019-02-04T18:52:05.645Z,-0.90
2019-02-04T18:54:36.086Z,-0.80
2019-02-04T18:57:06.713Z,-0.90
2019-02-04T18:59:36.798Z,-0.90
2019-02-04T19:02:07.505Z,-1.00
2019-02-04T19:08:29.964Z,-1.10
2019-02-04T19:10:59.850Z,-1.10
2019-02-04T19:20:15.145Z,-1.20
2019-02-04T19:22:45.253Z,-1.40
2019-02-04T19:32:22.772Z,-1.10
2019-02-04T19:34:52.930Z,-1.20
2019-02-04T19:51:42.298Z,-1.10
2019-02-04T20:01:31.717Z,-1.40
2019-02-04T20:04:01.750Z,-1.20
2019-02-04T20:13:14.222Z,-1.10
2019-02-04T20:15:44.603Z,-1.10
2019-02-04T20:22:29.219Z,-1.00
2019-02-04T20:24:59.135Z,-1.00
2019-02-04T20:27:29.822Z,-1.10
2019-02-04T20:29:59.727Z,-1.10
2019-02-04T20:36:20.541Z,-1.70
2019-02-04T20:38:50.559Z,-1.60
2019-02-04T20:41:23.576Z,-1.50
2019-02-04T20:43:53.502Z,-1.50
2019-02-04T20:46:23.503Z,-1.70
2019-02-04T20:48:53.448Z,-1.90
2019-02-04T20:51:23.693Z,-2.00
2019-02-04T20:57:38.833Z,-1.90
2019-02-04T21:00:14.310Z,-2.20
2019-02-04T21:02:44.225Z,-2.30
2019-02-04T21:05:14.429Z,-2.40
2019-02-04T21:07:44.784Z,-2.60
2019-02-04T21:10:18.750Z,-2.50
2019-02-04T21:12:48.916Z,-2.50
2019-02-04T21:15:20.035Z,-2.50
2019-02-04T21:17:50.317Z,-2.60
2019-02-04T21:20:22.454Z,-2.60
2019-02-04T21:22:52.679Z,-2.60
2019-02-04T21:25:23.128Z,-2.20
2019-02-04T21:27:53.912Z,-2.30
2019-02-04T21:34:08.695Z,-2.30
2019-02-04T21:36:38.595Z,-2.40
2019-02-04T21:39:10.283Z,-2.40
2019-02-04T21:41:40.421Z,-2.30
2019-02-04T22:10:55.180Z,-2.20
2019-02-04T22:13:25.927Z,-2.10
2019-02-04T22:15:55.810Z,-2.10
2019-02-04T22:18:25.803Z,-2.00
2019-02-04T22:20:56.074Z,-2.00
2019-02-04T22:23:26.597Z,-1.60
2019-02-04T22:25:57.058Z,-1.60
2019-02-04T22:28:27.271Z,-1.80
2019-02-04T22:30:57.689Z,-1.90
2019-02-04T22:33:27.785Z,-2.00
2019-02-04T22:35:57.966Z,-2.10
2019-02-04T22:38:27.864Z,-2.00
2019-02-04T22:40:57.748Z,-1.80
2019-02-04T22:43:27.995Z,-1.80
2019-02-04T22:45:58.196Z,-1.90
2019-02-04T22:48:28.209Z,-2.00
2019-02-04T22:50:58.118Z,-2.00
2019-02-04T22:53:28.272Z,-2.00
2019-02-04T22:55:58.613Z,-1.70
2019-02-04T22:58:28.821Z,-1.50
2019-02-04T23:01:25.513Z,-1.50
2019-02-04T23:03:55.474Z,-1.80
2019-02-04T23:06:25.451Z,-1.90
2019-02-04T23:08:55.494Z,-1.70
2019-02-04T23:11:25.480Z,-1.60
2019-02-04T23:13:55.819Z,-1.70
2019-02-04T23:16:26.120Z,-1.90
2019-02-04T23:18:56.350Z,-2.00
2019-02-04T23:21:26.531Z,-1.90
2019-02-04T23:23:56.870Z,-1.70
2019-02-04T23:26:26.765Z,-1.70
2019-02-04T23:28:57.042Z,-1.60
2019-02-04T23:31:27.017Z,-1.60
2019-02-04T23:33:57.209Z,-1.70
2019-02-04T23:36:27.330Z,-1.80
2019-02-04T23:38:57.545Z,-2.00
2019-02-04T23:41:27.582Z,-1.80
2019-02-04T23:43:57.710Z,-1.60
2019-02-04T23:46:28.141Z,-1.40
2019-02-04T23:48:58.109Z,-1.20
2019-02-04T23:51:28.571Z,-1.10
2019-02-04T23:53:58.774Z,-1.10
2019-02-04T23:56:28.849Z,-1.30
